Polar Endurance — WDG2085 — position and weather

sailwx.info

Track history (hours):
 
Tides and Currents Weather Stations Pressure Air Temp Water Temp Dewpoint Dewpoint Depression Visibility Wind Speed Wind Dir Waves Ship Positions

Polar Endurance

Owner: Dunlap Towing Co., LaConner, WA. More information available from US FCC via Universal Licensing System and Coast Guard Vessel Documentation Center.

Last reported at 2016-Feb-09 03:26 UTC. Time now 2016-Feb-10 08:44 UTC.
Position N 58°15' W 136°07'.

Length 37 m.

Type: Towing. MMSI: 303144000.

Date/timePositionNaut miles runAvg speedWind from/ knotsBaromVisibWave heightAir tempDewpointWater temp
2016-Feb-09 03:26N 58°15' W 136°07'7 7.7
2016-Feb-09 02:33N 58°17' W 135°55'10 0.9
2016-Feb-08 14:33N 58°16' W 135°35'6 5.3
2016-Feb-08 13:23N 58°14' W 135°25'1 0.2
2016-Feb-08 10:20N 58°14' W 135°24'3 4.2
2016-Feb-08 09:33N 58°15' W 135°29'4 3.8
2016-Feb-08 08:21N 58°17' W 135°37'6 4.9
2016-Feb-08 07:11N 58°15' W 135°27'3 1.7
2016-Feb-08 05:24N 58°13' W 135°22'4 4.5
2016-Feb-08 04:32N 58°15' W 135°29'5 4.7
2016-Feb-08 03:30N 58°16' W 135°37'1 0.9
2016-Feb-08 02:31N 58°16' W 135°36'5 5.2
2016-Feb-08 01:30N 58°14' W 135°26'7 1.3
2016-Feb-07 20:13N 58°16' W 135°39'  
2016-Feb-05 01:33N 52°16' W 128°11'12 6.1
2016-Feb-04 23:33N 52°11' W 127°53'9 8.9
2016-Feb-04 22:30N 52°02' W 127°55'55 9.3
2016-Feb-04 16:33N 51°07' W 127°47'9 9.5
2016-Feb-04 15:33N 51°01' W 127°36'9 9.4
2016-Feb-04 14:33N 50°55' W 127°25'10 9.8
2016-Feb-04 13:30N 50°49' W 127°11'74 8.3
2016-Feb-04 04:33N 50°18' W 125°25'9 9.3
2016-Feb-04 03:34N 50°09' W 125°21'6 6.5
2016-Feb-04 02:33N 50°04' W 125°15'7 7.2
2016-Feb-04 01:33N 49°58' W 125°09'7 6.8
2016-Feb-04 00:34N 49°53' W 125°02'6 6.4
2016-Feb-03 23:33N 49°49' W 124°54'7 6.6
2016-Feb-03 22:33N 49°45' W 124°46'1010.2
2016-Feb-03 21:33N 49°39' W 124°33'1010.2
2016-Feb-03 20:34N 49°34' W 124°20'1010.4
2016-Feb-03 19:34N 49°28' W 124°06'1010.2
2016-Feb-03 18:33N 49°22' W 123°54'1010.3
2016-Feb-03 17:33N 49°15' W 123°42'1110.6
2016-Feb-03 16:33N 49°08' W 123°29'1010.1
2016-Feb-03 15:33N 49°02' W 123°17'10 9.6
2016-Feb-03 14:33N 48°56' W 123°06'1010.1
2016-Feb-03 13:33N 48°49' W 122°55'10 9.8
2016-Feb-03 12:33N 48°43' W 122°44'10 9.6
2016-Feb-03 11:33N 48°33' W 122°45'1010.4
2016-Feb-03 10:33N 48°23' W 122°44'17 8.2
2016-Feb-03 08:27N 48°06' W 122°39'8 8.9
2016-Feb-03 07:32N 47°58' W 122°34'8 8.4
2016-Feb-03 06:34N 47°51' W 122°27'9 9.3
2016-Feb-03 05:33N 47°42' W 122°26'7 7.2
2016-Feb-03 04:33N 47°36' W 122°22'1 0.6
2016-Feb-03 03:34N 47°35' W 122°21'0 0.0
2016-Feb-03 02:34N 47°35' W 122°21'0 0.0
2016-Feb-03 01:33N 47°35' W 122°21'0 0.0
2016-Feb-03 00:34N 47°35' W 122°21'0 0.0
2016-Feb-02 23:33N 47°35' W 122°21'2 2.4
2016-Feb-02 22:34N 47°37' W 122°24'1211.9
2016-Feb-02 21:33N 47°49' W 122°24'1212.5
2016-Feb-02 20:34N 47°59' W 122°13'0 0.2
2016-Feb-02 19:29N 47°59' W 122°13'0 0.0
2016-Feb-02 18:33N 47°59' W 122°13'0 0.0
2016-Feb-02 17:33N 47°59' W 122°13'  
Track history (hours):
 
Tides and Currents Weather Stations Pressure Air Temp Water Temp Dewpoint Dewpoint Depression Visibility Wind Speed Wind Dir Waves Ship Positions

Polar Endurance

Owner: Dunlap Towing Co., LaConner, WA. More information available from US FCC via Universal Licensing System and Coast Guard Vessel Documentation Center.

Last reported at 2016-Feb-09 03:26 UTC. Time now 2016-Feb-10 08:44 UTC.
Position N 58°15' W 136°07'.

Length 37 m.

Type: Towing. MMSI: 303144000.

Date/timePositionNaut miles runAvg speedWind from/ knotsBaromVisibWave heightAir tempDewpointWater temp
2016-Feb-09 03:26N 58°15' W 136°07'7 7.7
2016-Feb-09 02:33N 58°17' W 135°55'10 0.9
2016-Feb-08 14:33N 58°16' W 135°35'6 5.3
2016-Feb-08 13:23N 58°14' W 135°25'1 0.2
2016-Feb-08 10:20N 58°14' W 135°24'3 4.2
2016-Feb-08 09:33N 58°15' W 135°29'4 3.8
2016-Feb-08 08:21N 58°17' W 135°37'6 4.9
2016-Feb-08 07:11N 58°15' W 135°27'3 1.7
2016-Feb-08 05:24N 58°13' W 135°22'4 4.5
2016-Feb-08 04:32N 58°15' W 135°29'5 4.7
2016-Feb-08 03:30N 58°16' W 135°37'1 0.9
2016-Feb-08 02:31N 58°16' W 135°36'5 5.2
2016-Feb-08 01:30N 58°14' W 135°26'7 1.3
2016-Feb-07 20:13N 58°16' W 135°39'  
2016-Feb-05 01:33N 52°16' W 128°11'12 6.1
2016-Feb-04 23:33N 52°11' W 127°53'9 8.9
2016-Feb-04 22:30N 52°02' W 127°55'55 9.3
2016-Feb-04 16:33N 51°07' W 127°47'9 9.5
2016-Feb-04 15:33N 51°01' W 127°36'9 9.4
2016-Feb-04 14:33N 50°55' W 127°25'10 9.8
2016-Feb-04 13:30N 50°49' W 127°11'74 8.3
2016-Feb-04 04:33N 50°18' W 125°25'9 9.3
2016-Feb-04 03:34N 50°09' W 125°21'6 6.5
2016-Feb-04 02:33N 50°04' W 125°15'7 7.2
2016-Feb-04 01:33N 49°58' W 125°09'7 6.8
2016-Feb-04 00:34N 49°53' W 125°02'6 6.4
2016-Feb-03 23:33N 49°49' W 124°54'7 6.6
2016-Feb-03 22:33N 49°45' W 124°46'1010.2
2016-Feb-03 21:33N 49°39' W 124°33'1010.2
2016-Feb-03 20:34N 49°34' W 124°20'1010.4
2016-Feb-03 19:34N 49°28' W 124°06'1010.2
2016-Feb-03 18:33N 49°22' W 123°54'1010.3
2016-Feb-03 17:33N 49°15' W 123°42'1110.6
2016-Feb-03 16:33N 49°08' W 123°29'1010.1
2016-Feb-03 15:33N 49°02' W 123°17'10 9.6
2016-Feb-03 14:33N 48°56' W 123°06'1010.1
2016-Feb-03 13:33N 48°49' W 122°55'10 9.8
2016-Feb-03 12:33N 48°43' W 122°44'10 9.6
2016-Feb-03 11:33N 48°33' W 122°45'1010.4
2016-Feb-03 10:33N 48°23' W 122°44'17 8.2
2016-Feb-03 08:27N 48°06' W 122°39'8 8.9
2016-Feb-03 07:32N 47°58' W 122°34'8 8.4
2016-Feb-03 06:34N 47°51' W 122°27'9 9.3
2016-Feb-03 05:33N 47°42' W 122°26'7 7.2
2016-Feb-03 04:33N 47°36' W 122°22'1 0.6
2016-Feb-03 03:34N 47°35' W 122°21'0 0.0
2016-Feb-03 02:34N 47°35' W 122°21'0 0.0
2016-Feb-03 01:33N 47°35' W 122°21'0 0.0
2016-Feb-03 00:34N 47°35' W 122°21'0 0.0
2016-Feb-02 23:33N 47°35' W 122°21'2 2.4
2016-Feb-02 22:34N 47°37' W 122°24'1211.9
2016-Feb-02 21:33N 47°49' W 122°24'1212.5
2016-Feb-02 20:34N 47°59' W 122°13'0 0.2
2016-Feb-02 19:29N 47°59' W 122°13'0 0.0
2016-Feb-02 18:33N 47°59' W 122°13'0 0.0
2016-Feb-02 17:33N 47°59' W 122°13'  

Dump ship's entire track history